Time;durP1;ratioP1;P1;durP2;ratioP2;P2;SDS_P1;SDS_P2;PMS_P1;PMS_P2;Temp;Humidity;BMP_temperature;BMP_pressure;BME280_temperature;BME280_humidity;BME280_pressure;Samples;Min_cycle;Max_cycle;Signal;HPM_P1;HPM_P2
2023/03/14 00:01:56;;;;;;;1.95;0.90;;;;;;;10.98;78.25;98869.91;4187813;28;20040;-72
2023/03/14 00:03:59;;;;;;;1.67;0.85;;;;;;;10.93;77.56;98869.13;4164616;28;20041;-72
2023/03/14 00:06:03;;;;;;;1.33;0.88;;;;;;;10.90;78.13;98874.34;4192908;28;20045;-73
2023/03/14 00:08:06;;;;;;;0.70;0.70;;;;;;;10.92;77.82;98873.47;4183878;28;20036;-73
2023/03/14 00:10:12;;;;;;;2.15;0.88;;;;;;;11.01;77.46;98877.69;4183237;28;20045;-74
2023/03/14 00:12:15;;;;;;;0.93;0.60;;;;;;;11.11;76.76;98874.09;4185903;28;20035;-74
2023/03/14 00:14:18;;;;;;;1.13;0.65;;;;;;;11.13;77.21;98866.25;4178494;28;20051;-73
2023/03/14 00:16:21;;;;;;;0.93;0.65;;;;;;;11.02;76.79;98869.00;4167231;28;20045;-71
2023/03/14 00:18:25;;;;;;;1.80;0.80;;;;;;;11.07;76.66;98854.19;4170056;28;20128;-72
2023/03/14 00:20:28;;;;;;;8.60;0.90;;;;;;;11.00;77.16;98860.34;4183272;28;20788;-74
2023/03/14 00:22:31;;;;;;;3.35;0.77;;;;;;;10.99;77.45;98864.72;4188519;28;20048;-72
2023/03/14 00:24:34;;;;;;;1.30;0.70;;;;;;;11.07;76.70;98872.41;4187355;28;20048;-74
2023/03/14 00:26:37;;;;;;;1.02;0.60;;;;;;;10.96;76.92;98864.72;4182548;28;20059;-73
2023/03/14 00:28:42;;;;;;;2.92;0.80;;;;;;;11.12;77.06;98865.38;4168612;28;20041;-73
2023/03/14 00:30:45;;;;;;;3.78;1.25;;;;;;;11.11;77.40;98857.59;4176027;28;20092;-74
2023/03/14 00:32:51;;;;;;;6.25;1.17;;;;;;;11.05;77.55;98853.34;4160655;28;20092;-73
2023/03/14 00:34:55;;;;;;;1.95;0.90;;;;;;;11.05;77.35;98848.13;4161057;28;20048;-73
2023/03/14 00:36:58;;;;;;;0.75;0.70;;;;;;;11.17;76.81;98857.53;4165816;28;20104;-73
2023/03/14 00:39:00;;;;;;;1.17;0.75;;;;;;;11.18;76.67;98849.72;4162679;28;20520;-72
2023/03/14 00:41:08;;;;;;;3.22;0.98;;;;;;;11.17;76.73;98847.97;4159310;28;20050;-72
2023/03/14 00:43:10;;;;;;;1.63;0.90;;;;;;;11.08;76.74;98840.31;4161957;28;20048;-72
2023/03/14 00:45:13;;;;;;;0.98;0.80;;;;;;;11.12;77.00;98843.72;4175338;28;20090;-74
2023/03/14 00:47:17;;;;;;;4.28;0.80;;;;;;;11.08;76.40;98842.03;4182821;28;20336;-73
2023/03/14 00:49:19;;;;;;;1.27;0.70;;;;;;;11.17;76.71;98836.72;4165373;28;20042;-74
2023/03/14 00:51:23;;;;;;;2.15;0.90;;;;;;;11.04;76.93;98835.16;4152211;28;20041;-74
2023/03/14 00:53:26;;;;;;;1.73;0.80;;;;;;;11.00;76.46;98835.19;4166610;28;20178;-73
2023/03/14 00:55:29;;;;;;;1.92;0.90;;;;;;;11.11;76.50;98842.88;4169446;28;20111;-72
2023/03/14 00:57:32;;;;;;;1.80;0.70;;;;;;;11.23;76.09;98838.34;4162371;28;20513;-72
2023/03/14 00:59:35;;;;;;;2.85;1.05;;;;;;;11.27;76.25;98840.91;4174016;28;20048;-72
2023/03/14 01:01:39;;;;;;;0.70;0.70;;;;;;;11.27;76.62;98848.72;4170205;28;20033;-72
2023/03/14 01:03:41;;;;;;;1.05;0.65;;;;;;;11.21;75.68;98847.94;4172434;28;20079;-72
2023/03/14 01:05:44;;;;;;;3.47;0.98;;;;;;;11.32;75.58;98846.03;4165314;28;20076;-73
2023/03/14 01:07:48;;;;;;;1.63;0.98;;;;;;;11.24;76.58;98860.88;4144425;28;20282;-72
2023/03/14 01:09:52;;;;;;;2.40;1.00;;;;;;;11.18;76.92;98848.81;4165062;28;20040;-72
2023/03/14 01:12:20;;;;;;;2.72;1.02;;;;;;;11.13;76.89;98850.66;4167111;28;20108;-72
2023/03/14 01:14:23;;;;;;;2.03;0.98;;;;;;;11.12;77.16;98834.16;4157332;28;20045;-71
2023/03/14 01:16:28;;;;;;;3.22;0.90;;;;;;;11.26;76.21;98840.94;4162883;28;20566;-72
2023/03/14 01:18:32;;;;;;;1.77;1.05;;;;;;;11.17;76.87;98840.19;4167184;28;20029;-71
2023/03/14 01:20:35;;;;;;;1.67;0.90;;;;;;;11.13;77.09;98835.03;4181268;28;20132;-72
2023/03/14 01:22:39;;;;;;;3.38;1.25;;;;;;;11.28;76.89;98819.19;4162294;28;20034;-71
2023/03/14 01:24:43;;;;;;;2.92;1.08;;;;;;;11.19;76.81;98827.16;4187872;28;20093;-72
2023/03/14 01:26:46;;;;;;;2.13;0.80;;;;;;;11.22;76.67;98839.25;4166923;28;20037;-72
2023/03/14 01:28:50;;;;;;;2.22;0.95;;;;;;;11.27;76.79;98829.63;4167739;28;20048;-72
2023/03/14 01:30:54;;;;;;;;;;;;;;;11.16;76.77;98817.66;4185161;28;20036;-72
2023/03/14 01:32:56;;;;;;;3.92;0.95;;;;;;;11.06;77.42;98808.25;4164595;28;19959;-72
2023/03/14 01:34:59;;;;;;;1.83;0.73;;;;;;;11.11;77.08;98818.59;4160366;28;20470;-72
2023/03/14 01:37:02;;;;;;;2.50;0.73;;;;;;;11.10;76.62;98812.53;4162938;28;20048;-72
2023/03/14 01:39:07;;;;;;;1.73;0.80;;;;;;;11.12;76.73;98805.56;4169663;28;20517;-72
2023/03/14 01:41:15;;;;;;;1.45;0.90;;;;;;;11.33;76.38;98808.72;4171473;28;20120;-72
2023/03/14 01:43:20;;;;;;;3.28;0.93;;;;;;;11.22;76.56;98797.63;4169002;28;20128;-74
2023/03/14 01:46:15;;;;;;;2.90;1.10;;;;;;;11.24;76.77;98816.66;4159097;28;20091;-73
2023/03/14 01:48:19;;;;;;;3.28;1.08;;;;;;;11.26;76.23;98794.97;4163476;28;20037;-71
2023/03/14 01:50:23;;;;;;;4.05;1.38;;;;;;;11.12;76.89;98789.97;4164183;28;20047;-72
2023/03/14 01:52:31;;;;;;;2.95;1.10;;;;;;;11.21;77.12;98786.34;4174059;28;20071;-71
2023/03/14 01:54:38;;;;;;;2.40;0.90;;;;;;;11.18;76.37;98779.47;4185200;28;20033;-72
2023/03/14 01:56:47;;;;;;;1.70;0.85;;;;;;;11.16;76.90;98783.84;4163864;28;20132;-72
2023/03/14 01:58:52;;;;;;;4.43;1.30;;;;;;;11.17;76.73;98775.16;4158822;28;20042;-72
2023/03/14 02:00:57;;;;;;;2.92;1.20;;;;;;;11.06;76.84;98771.00;4157649;28;20129;-72
2023/03/14 02:03:03;;;;;;;1.25;0.90;;;;;;;11.18;76.50;98761.28;4171317;28;20045;-71
2023/03/14 02:05:06;;;;;;;11.05;2.25;;;;;;;11.25;77.23;98751.63;4157903;28;20101;-71
2023/03/14 02:07:16;;;;;;;2.08;1.10;;;;;;;11.17;76.59;98749.16;4162063;28;20037;-72
2023/03/14 02:09:28;;;;;;;2.25;1.23;;;;;;;11.16;76.67;98747.41;4161426;28;20041;-72
2023/03/14 02:11:31;;;;;;;3.30;1.33;;;;;;;11.21;76.45;98754.28;4165602;28;20037;-71
2023/03/14 02:13:43;;;;;;;0.95;0.80;;;;;;;11.20;77.12;98748.25;4172014;28;20040;-73
2023/03/14 02:15:57;;;;;;;2.88;1.23;;;;;;;11.14;76.78;98736.19;4171527;28;20052;-71
2023/03/14 02:18:19;;;;;;;2.65;0.88;;;;;;;11.17;76.17;98733.53;4176942;28;20044;-72
2023/03/14 02:20:39;;;;;;;3.90;1.20;;;;;;;11.08;75.98;98728.50;4195268;22;20288;-66
2023/03/14 02:22:46;;;;;;;4.18;1.10;;;;;;;11.15;76.47;98732.69;4158029;28;20089;-72
2023/03/14 02:24:58;;;;;;;3.95;1.02;;;;;;;11.16;75.78;98716.22;4146059;28;20040;-73
2023/03/14 02:27:13;;;;;;;3.20;0.98;;;;;;;11.20;75.08;98742.16;4141771;28;21384;-73
2023/03/14 02:29:19;;;;;;;1.85;1.02;;;;;;;11.15;74.82;98729.25;4150234;28;20042;-72
2023/03/14 02:31:23;;;;;;;2.97;1.55;;;;;;;11.07;74.54;98733.69;4142249;28;20046;-73
2023/03/14 02:33:27;;;;;;;3.50;1.02;;;;;;;11.12;74.51;98718.88;4145933;28;20038;-73
2023/03/14 02:35:35;;;;;;;1.83;0.70;;;;;;;11.09;75.22;98719.78;4125923;28;20085;-73
2023/03/14 02:37:42;;;;;;;1.77;0.90;;;;;;;11.13;74.25;98716.25;4142919;28;20056;-74
2023/03/14 02:39:48;;;;;;;1.77;0.88;;;;;;;11.03;74.73;98709.50;4150052;28;20041;-74
2023/03/14 02:41:52;;;;;;;3.22;1.00;;;;;;;11.05;75.08;98712.91;4147415;28;20065;-74
2023/03/14 02:43:56;;;;;;;3.65;1.05;;;;;;;10.96;75.38;98718.28;4146564;28;20034;-73
2023/03/14 02:46:02;;;;;;;2.10;0.70;;;;;;;11.06;75.08;98709.44;4144098;28;20046;-74
2023/03/14 02:48:09;;;;;;;4.03;1.20;;;;;;;11.08;74.77;98702.50;4151638;28;20485;-73
2023/03/14 02:50:19;;;;;;;2.33;0.60;;;;;;;11.03;75.21;98699.09;4153189;28;20125;-73
2023/03/14 02:52:21;;;;;;;2.42;1.08;;;;;;;10.97;74.81;98714.78;4149369;28;20045;-72
2023/03/14 02:54:24;;;;;;;2.30;0.90;;;;;;;10.91;75.47;98714.91;4158148;28;20038;-72
2023/03/14 02:56:27;;;;;;;3.20;1.08;;;;;;;10.78;75.57;98717.66;4144607;28;20038;-71
2023/03/14 02:58:31;;;;;;;3.35;1.80;;;;;;;10.85;75.48;98720.16;4156651;28;20069;-71
2023/03/14 03:00:43;;;;;;;2.03;0.98;;;;;;;10.93;74.73;98706.16;4153621;28;20112;-72
2023/03/14 03:02:47;;;;;;;3.67;1.13;;;;;;;10.91;74.96;98696.69;4154124;28;20057;-72
2023/03/14 03:04:50;;;;;;;2.35;0.90;;;;;;;10.99;74.48;98702.63;4148121;28;20034;-73
2023/03/14 03:06:53;;;;;;;3.55;1.00;;;;;;;11.00;74.34;98694.78;4153503;28;20095;-72
2023/03/14 03:08:56;;;;;;;2.25;1.10;;;;;;;10.96;74.76;98692.28;4150137;28;20044;-72
2023/03/14 03:10:59;;;;;;;3.55;1.10;;;;;;;11.05;73.82;98686.06;4154657;28;20404;-73
2023/03/14 03:13:05;;;;;;;3.28;1.02;;;;;;;11.01;74.59;98700.88;4127268;28;20141;-73
2023/03/14 03:15:08;;;;;;;4.93;1.33;;;;;;;10.99;73.44;98702.63;4159509;28;20089;-71
2023/03/14 03:17:13;;;;;;;;;;;;;;;11.00;73.80;98686.13;4153532;28;20081;-73
2023/03/14 03:19:17;;;;;;;2.75;1.08;;;;;;;10.92;73.85;98685.41;4144835;28;20270;-72
2023/03/14 03:21:23;;;;;;;3.17;1.30;;;;;;;10.84;74.84;98680.31;4169464;28;20425;-73
2023/03/14 03:23:26;;;;;;;3.13;0.90;;;;;;;10.87;74.53;98669.03;4137089;28;20050;-72
2023/03/14 03:25:29;;;;;;;2.47;1.08;;;;;;;10.81;75.11;98651.78;4146747;28;20046;-72
2023/03/14 03:27:32;;;;;;;4.35;1.20;;;;;;;10.90;74.90;98646.44;4145314;28;20033;-72
2023/03/14 03:29:36;;;;;;;3.55;1.23;;;;;;;11.00;74.41;98648.00;4160371;28;21189;-71
2023/03/14 03:31:39;;;;;;;2.80;0.98;;;;;;;10.99;74.89;98645.41;4150733;28;20048;-72
2023/03/14 03:33:43;;;;;;;4.53;1.48;;;;;;;10.87;73.80;98635.22;4155215;28;20045;-72
2023/03/14 03:35:49;;;;;;;2.75;1.30;;;;;;;10.99;74.50;98630.69;4152624;28;20034;-72
2023/03/14 03:37:58;;;;;;;3.58;1.10;;;;;;;11.03;73.81;98631.47;4148262;28;20424;-72
2023/03/14 03:40:01;;;;;;;6.32;1.45;;;;;;;11.03;73.98;98630.63;4160405;28;20025;-72
2023/03/14 03:42:04;;;;;;;9.13;1.45;;;;;;;11.07;73.71;98633.16;4148961;28;20172;-73
2023/03/14 03:44:07;;;;;;;7.03;1.25;;;;;;;11.08;73.11;98623.59;4140344;28;20053;-72
2023/03/14 03:46:10;;;;;;;4.75;1.10;;;;;;;11.07;73.52;98616.66;4163520;28;20272;-70
2023/03/14 03:48:13;;;;;;;5.78;1.70;;;;;;;10.96;73.53;98604.72;4164373;28;20048;-72
2023/03/14 03:50:18;;;;;;;4.55;1.27;;;;;;;10.99;74.04;98603.81;4117480;28;20039;-72
2023/03/14 03:52:21;;;;;;;7.70;1.42;;;;;;;10.99;73.89;98611.63;4160294;28;20382;-73
2023/03/14 03:54:24;;;;;;;4.50;1.75;;;;;;;11.01;73.36;98609.88;4155058;28;20084;-73
2023/03/14 03:56:27;;;;;;;3.35;1.17;;;;;;;10.99;73.06;98612.50;4150842;28;20529;-72
2023/03/14 03:58:29;;;;;;;2.05;1.20;;;;;;;11.13;72.68;98611.38;4137702;28;20097;-72
2023/03/14 04:00:33;;;;;;;2.70;0.88;;;;;;;11.10;72.82;98609.69;4149100;28;20375;-72
2023/03/14 04:02:36;;;;;;;4.78;1.52;;;;;;;11.07;73.52;98622.75;4139619;28;20050;-71
2023/03/14 04:04:39;;;;;;;3.85;1.48;;;;;;;11.06;72.92;98635.78;4157146;28;20579;-72
2023/03/14 04:06:43;;;;;;;4.57;1.40;;;;;;;11.12;73.32;98631.31;4132117;28;20050;-72
2023/03/14 04:08:47;;;;;;;3.50;1.10;;;;;;;11.00;73.96;98623.75;4166596;28;20041;-72
2023/03/14 04:11:05;;;;;;;2.85;1.05;;;;;;;10.95;73.57;98633.34;4150548;28;20152;-72
2023/03/14 04:13:28;;;;;;;3.47;1.35;;;;;;;11.04;73.31;98627.13;4169946;28;20071;-72
2023/03/14 04:15:32;;;;;;;5.30;1.40;;;;;;;11.00;73.18;98619.38;4150352;28;20117;-71
2023/03/14 04:17:38;;;;;;;3.45;0.93;;;;;;;11.02;72.63;98619.34;4129401;28;20077;-72
2023/03/14 04:19:41;;;;;;;6.93;1.40;;;;;;;10.93;72.80;98614.31;4126457;28;20623;-73
2023/03/14 04:21:46;;;;;;;4.05;1.30;;;;;;;10.93;73.20;98614.31;4144137;28;20033;-73
2023/03/14 04:23:50;;;;;;;2.67;0.98;;;;;;;10.86;72.90;98616.16;4159653;28;20505;-73
2023/03/14 04:25:54;;;;;;;3.85;1.10;;;;;;;10.87;73.35;98617.03;4143567;28;20525;-72
2023/03/14 04:27:58;;;;;;;3.83;0.98;;;;;;;10.95;73.37;98605.63;4158113;28;20555;-74
2023/03/14 04:30:05;;;;;;;2.50;0.82;;;;;;;10.87;73.13;98602.28;4149264;28;20041;-74
2023/03/14 04:32:28;;;;;;;3.03;0.95;;;;;;;10.91;72.75;98592.72;4163415;28;20075;-74
2023/03/14 04:34:33;;;;;;;2.30;1.05;;;;;;;10.91;73.65;98595.31;4143365;28;20049;-73
2023/03/14 04:36:36;;;;;;;4.85;1.33;;;;;;;10.87;73.50;98593.63;4161324;28;20036;-73
2023/03/14 04:38:45;;;;;;;5.00;1.10;;;;;;;10.91;73.08;98595.31;4153294;28;20501;-73
2023/03/14 04:40:52;;;;;;;2.50;1.08;;;;;;;10.78;73.83;98595.50;4157219;28;20033;-73
2023/03/14 04:42:57;;;;;;;2.20;0.90;;;;;;;10.76;73.65;98602.47;4149354;28;20485;-73
2023/03/14 04:45:00;;;;;;;2.08;1.33;;;;;;;10.79;73.14;98605.03;4150047;28;20085;-73
2023/03/14 04:47:05;;;;;;;4.70;1.80;;;;;;;10.81;73.22;98592.00;4130865;28;20061;-73
2023/03/14 04:49:09;;;;;;;4.07;1.03;;;;;;;10.86;72.75;98592.75;4155537;28;20030;-72
2023/03/14 04:51:12;;;;;;;3.20;1.13;;;;;;;10.85;72.64;98580.66;4171427;28;20296;-73
2023/03/14 04:53:15;;;;;;;3.28;1.30;;;;;;;10.78;72.91;98579.91;4147605;28;20058;-73
2023/03/14 04:55:20;;;;;;;;;;;;;;;10.64;72.92;98587.94;4148721;28;20128;-73
2023/03/14 04:57:27;;;;;;;2.53;0.80;;;;;;;10.67;72.74;98588.78;4163781;28;19921;-71
2023/03/14 04:59:30;;;;;;;1.70;1.00;;;;;;;10.68;73.34;98599.13;4147961;28;20071;-73
2023/03/14 05:01:40;;;;;;;4.40;1.13;;;;;;;10.61;72.71;98590.56;4154232;28;20037;-73
2023/03/14 05:03:56;;;;;;;5.53;1.83;;;;;;;10.74;72.51;98591.22;4162289;28;20131;-73
2023/03/14 05:06:24;;;;;;;5.57;1.17;;;;;;;10.74;73.43;98572.19;4151101;28;20045;-72
2023/03/14 05:08:27;;;;;;;4.63;1.20;;;;;;;10.76;72.72;98581.69;4168730;28;20554;-72
2023/03/14 05:10:54;;;;;;;2.58;0.90;;;;;;;10.81;72.33;98574.66;4141527;28;20049;-72
2023/03/14 05:13:14;;;;;;;7.75;1.15;;;;;;;10.76;72.43;98586.00;4149208;28;20133;-72
2023/03/14 05:15:25;;;;;;;5.90;1.30;;;;;;;10.90;72.12;98573.63;4150823;28;20424;-72
2023/03/14 05:17:48;;;;;;;4.82;1.33;;;;;;;10.85;71.99;98577.19;4172452;28;20465;-72
2023/03/14 05:20:15;;;;;;;3.13;1.10;;;;;;;10.79;71.51;98568.63;4139929;28;20157;-72
2023/03/14 05:22:47;;;;;;;4.38;1.20;;;;;;;10.79;71.18;98567.75;4149271;28;20110;-72
2023/03/14 05:25:10;;;;;;;3.22;1.10;;;;;;;10.73;72.31;98560.94;4159992;28;20155;-66
2023/03/14 05:27:29;;;;;;;3.97;1.17;;;;;;;10.67;72.40;98570.56;4145639;28;20045;-72
2023/03/14 05:29:42;;;;;;;2.58;0.90;;;;;;;10.67;71.79;98562.78;4158308;28;20035;-72
2023/03/14 05:32:14;;;;;;;6.82;2.22;;;;;;;10.68;71.60;98565.34;4149418;28;20038;-72
2023/03/14 05:35:09;;;;;;;3.28;0.93;;;;;;;10.64;71.92;98572.34;4146640;28;20059;-72
2023/03/14 05:37:35;;;;;;;3.60;1.25;;;;;;;10.55;71.63;98571.63;4153430;28;20057;-72
2023/03/14 05:39:52;;;;;;;4.93;1.13;;;;;;;10.68;71.50;98570.56;4140642;28;20129;-72
2023/03/14 05:42:18;;;;;;;;;;;;;;;10.79;71.41;98568.63;4175244;28;20476;-72
2023/03/14 05:44:35;;;;;;;6.22;1.35;;;;;;;10.72;71.36;98561.81;4151725;28;19940;-72
2023/03/14 05:46:46;;;;;;;5.60;1.80;;;;;;;10.78;70.77;98569.50;4167464;28;20037;-72
2023/03/14 05:49:08;;;;;;;6.60;2.53;;;;;;;10.75;71.30;98569.56;4133818;28;20046;-73
2023/03/14 05:51:20;;;;;;;4.13;1.20;;;;;;;10.76;70.88;98570.41;4146956;28;20034;-71
2023/03/14 05:53:45;;;;;;;3.40;1.05;;;;;;;10.80;70.52;98567.72;4136637;28;20081;-72
2023/03/14 05:56:09;;;;;;;5.03;1.00;;;;;;;10.93;69.92;98563.19;4163762;28;20073;-71
2023/03/14 05:58:32;;;;;;;3.47;1.17;;;;;;;10.86;70.93;98563.31;4170835;28;20154;-72
2023/03/14 06:00:54;;;;;;;4.00;1.08;;;;;;;10.85;71.16;98565.06;4148833;28;20061;-72
2023/03/14 06:03:11;;;;;;;5.75;1.42;;;;;;;10.87;70.52;98563.28;4143457;28;20060;-72
2023/03/14 06:05:19;;;;;;;5.97;1.40;;;;;;;10.94;70.57;98564.06;4145382;28;20049;-72
2023/03/14 06:07:22;;;;;;;6.60;1.60;;;;;;;10.89;70.23;98556.31;4140429;28;20077;-73
2023/03/14 06:09:25;;;;;;;6.30;1.00;;;;;;;10.94;70.26;98554.50;4156595;28;20041;-71
2023/03/14 06:11:31;;;;;;;5.05;1.27;;;;;;;10.95;70.39;98555.34;4153815;28;20041;-72
2023/03/14 06:13:34;;;;;;;3.55;1.00;;;;;;;10.97;69.50;98561.41;4149227;28;20049;-72
2023/03/14 06:15:38;;;;;;;3.58;0.95;;;;;;;10.91;69.55;98558.91;4147444;28;20053;-72
2023/03/14 06:17:42;;;;;;;5.72;1.15;;;;;;;10.97;70.09;98556.19;4162879;28;20046;-72
2023/03/14 06:19:47;;;;;;;2.92;0.95;;;;;;;10.97;70.30;98559.63;4145637;28;20041;-72
2023/03/14 06:21:50;;;;;;;3.60;0.82;;;;;;;11.06;68.83;98556.03;4145059;28;20046;-72
2023/03/14 06:23:54;;;;;;;4.38;1.38;;;;;;;10.98;69.23;98561.38;4150120;28;20033;-72
2023/03/14 06:25:57;;;;;;;2.35;0.90;;;;;;;10.93;69.79;98551.94;4148173;28;20029;-72
2023/03/14 06:28:01;;;;;;;2.50;0.93;;;;;;;10.91;69.78;98564.13;4144577;28;20125;-72
2023/03/14 06:30:05;;;;;;;4.70;1.00;;;;;;;10.91;70.14;98570.16;4144539;28;20030;-72
2023/03/14 06:32:09;;;;;;;2.40;0.80;;;;;;;10.98;69.74;98563.09;4128229;28;20040;-72
2023/03/14 06:34:14;;;;;;;2.47;1.10;;;;;;;10.87;69.72;98570.25;4153718;28;20464;-73
2023/03/14 06:36:18;;;;;;;2.22;1.02;;;;;;;10.83;69.91;98567.69;4154519;28;20112;-73
2023/03/14 06:38:22;;;;;;;2.22;0.90;;;;;;;10.87;69.70;98563.28;4151651;28;20493;-73
2023/03/14 06:40:28;;;;;;;7.03;1.23;;;;;;;10.98;69.31;98560.50;4133247;28;20042;-73
2023/03/14 06:42:40;;;;;;;4.30;1.00;;;;;;;10.99;69.95;98546.63;4129718;28;20081;-73
2023/03/14 06:44:43;;;;;;;5.78;1.55;;;;;;;10.97;69.98;98546.66;4138060;28;20128;-73
2023/03/14 06:46:46;;;;;;;4.00;1.13;;;;;;;10.93;70.83;98557.13;4145180;28;20133;-73
2023/03/14 06:48:49;;;;;;;4.97;1.10;;;;;;;11.01;70.72;98555.25;4144405;28;20113;-73
2023/03/14 06:50:53;;;;;;;3.92;1.05;;;;;;;11.03;69.82;98548.28;4133021;28;20038;-73
2023/03/14 06:52:57;;;;;;;6.88;1.10;;;;;;;11.05;69.89;98546.50;4150290;28;20037;-73
2023/03/14 06:55:02;;;;;;;5.07;1.58;;;;;;;11.02;70.03;98546.56;4160204;28;20148;-74
2023/03/14 06:57:05;;;;;;;4.50;1.08;;;;;;;11.02;70.18;98549.16;4127090;28;20144;-73
2023/03/14 06:59:08;;;;;;;2.35;1.20;;;;;;;11.05;69.52;98549.09;4155389;28;20072;-73
2023/03/14 07:01:22;;;;;;;6.57;1.40;;;;;;;11.11;69.56;98553.31;4132734;28;20533;-72
2023/03/14 07:03:25;;;;;;;7.82;1.42;;;;;;;11.10;69.92;98564.63;4145325;28;20444;-72
2023/03/14 07:05:30;;;;;;;3.63;1.00;;;;;;;11.13;69.22;98560.22;4147806;28;20109;-75
2023/03/14 07:07:35;;;;;;;2.80;0.90;;;;;;;11.18;68.91;98563.59;4145770;28;20381;-72
2023/03/14 07:09:39;;;;;;;5.30;1.08;;;;;;;11.13;69.50;98555.03;4167138;28;20040;-72
2023/03/14 07:11:42;;;;;;;5.18;1.38;;;;;;;11.13;70.42;98560.22;4151175;28;20029;-73
2023/03/14 07:13:45;;;;;;;4.97;1.17;;;;;;;11.11;70.24;98562.00;4148679;28;20122;-72
2023/03/14 07:15:48;;;;;;;7.57;0.98;;;;;;;11.13;69.98;98569.78;4161075;28;20041;-73
2023/03/14 07:17:51;;;;;;;3.13;1.13;;;;;;;11.16;70.64;98569.72;4143239;28;20497;-73
2023/03/14 07:19:56;;;;;;;1.40;0.65;;;;;;;11.11;69.29;98572.41;4128240;28;20710;-72
2023/03/14 07:21:59;;;;;;;3.10;1.10;;;;;;;11.11;68.40;98559.41;4155868;28;20460;-73
2023/03/14 07:24:05;;;;;;;4.15;1.10;;;;;;;11.22;69.01;98563.53;4153411;28;20120;-73
2023/03/14 07:26:08;;;;;;;5.43;1.27;;;;;;;11.20;68.29;98568.78;4141810;28;20046;-73
2023/03/14 07:28:14;;;;;;;4.10;0.98;;;;;;;11.14;69.94;98571.47;4144919;28;20080;-73
2023/03/14 07:30:19;;;;;;;2.78;1.05;;;;;;;11.14;69.97;98590.56;4144175;28;20041;-71
2023/03/14 07:32:22;;;;;;;3.92;1.20;;;;;;;11.18;69.38;98573.13;4147925;28;20030;-73
2023/03/14 07:34:25;;;;;;;4.15;1.15;;;;;;;11.18;69.82;98583.53;4144796;28;20041;-72
2023/03/14 07:36:28;;;;;;;3.17;1.30;;;;;;;11.23;69.58;98584.31;4141340;28;21317;-72
2023/03/14 07:38:31;;;;;;;5.30;1.60;;;;;;;11.30;69.95;98578.13;4144366;28;20483;-73
2023/03/14 07:40:58;;;;;;;2.03;0.85;;;;;;;11.29;69.47;98583.34;4123410;28;20057;-72
2023/03/14 07:43:01;;;;;;;2.05;0.90;;;;;;;11.37;68.76;98583.19;4158670;28;20057;-73
2023/03/14 07:45:15;;;;;;;2.23;0.80;;;;;;;11.31;67.79;98574.59;4144262;28;20363;-72
2023/03/14 07:47:20;;;;;;;4.25;0.90;;;;;;;11.31;66.82;98586.78;4158277;28;20320;-72
2023/03/14 07:49:22;;;;;;;3.97;1.52;;;;;;;11.34;67.61;98571.09;4149498;28;20076;-72
2023/03/14 07:51:25;;;;;;;2.33;0.77;;;;;;;11.29;67.95;98585.94;4145275;28;20050;-72
2023/03/14 07:53:28;;;;;;;2.95;0.90;;;;;;;11.42;68.74;98573.53;4157038;28;20044;-72
2023/03/14 07:55:31;;;;;;;1.85;0.52;;;;;;;11.39;68.23;98592.69;4163992;28;20083;-71
2023/03/14 07:57:35;;;;;;;3.47;1.05;;;;;;;11.39;67.36;98579.69;4142921;28;20054;-72
2023/03/14 07:59:38;;;;;;;3.45;1.08;;;;;;;11.57;67.69;98578.44;4164470;28;20484;-72
2023/03/14 08:01:41;;;;;;;4.45;1.00;;;;;;;11.60;67.96;98582.75;4169030;28;20047;-71
2023/03/14 08:03:44;;;;;;;2.95;1.02;;;;;;;11.60;68.28;98581.00;4143943;28;20591;-72
2023/03/14 08:05:50;;;;;;;3.42;0.98;;;;;;;11.42;67.87;98577.03;4164435;28;20049;-71
2023/03/14 08:07:53;;;;;;;5.30;1.77;;;;;;;11.41;68.69;98580.50;4162813;28;20046;-72
2023/03/14 08:09:56;;;;;;;3.90;0.88;;;;;;;11.50;68.29;98579.47;4161428;28;20038;-71
2023/03/14 08:11:59;;;;;;;5.07;1.15;;;;;;;11.67;68.13;98582.56;4156364;28;20049;-71
2023/03/14 08:14:03;;;;;;;3.08;1.10;;;;;;;11.76;67.80;98576.31;4142998;28;20144;-71
2023/03/14 08:16:07;;;;;;;3.47;1.10;;;;;;;11.61;67.61;98581.84;4158694;28;20643;-70
2023/03/14 08:18:10;;;;;;;3.38;0.90;;;;;;;11.78;66.93;98569.31;4169113;28;20037;-70
2023/03/14 08:20:13;;;;;;;5.13;1.02;;;;;;;11.76;67.24;98570.28;4125943;28;20042;-70
2023/03/14 08:22:16;;;;;;;3.20;1.00;;;;;;;11.72;67.46;98569.47;4187293;22;20041;-72
2023/03/14 08:24:21;;;;;;;3.97;1.10;;;;;;;11.80;67.66;98562.34;4177030;28;20044;-73
2023/03/14 08:26:24;;;;;;;3.28;0.88;;;;;;;11.76;67.74;98565.91;4175965;28;20037;-73
2023/03/14 08:28:30;;;;;;;1.67;0.75;;;;;;;11.76;67.84;98559.84;4160744;28;20084;-73
2023/03/14 08:30:34;;;;;;;5.70;0.82;;;;;;;11.69;66.64;98562.56;4176934;28;20106;-72
2023/03/14 08:32:37;;;;;;;2.58;0.90;;;;;;;11.58;66.49;98574.09;4148018;28;20045;-71
2023/03/14 08:34:40;;;;;;;2.47;0.95;;;;;;;11.60;66.56;98581.00;4144969;28;20042;-72
2023/03/14 08:36:43;;;;;;;1.55;0.90;;;;;;;11.57;67.04;98586.25;4160075;28;20049;-72
2023/03/14 08:38:46;;;;;;;2.05;0.70;;;;;;;11.61;66.24;98584.44;4161578;28;20033;-72
2023/03/14 08:40:49;;;;;;;2.35;0.73;;;;;;;11.68;66.88;98581.69;4161575;28;20071;-72
2023/03/14 08:42:52;;;;;;;4.05;0.77;;;;;;;11.81;66.89;98578.81;4160474;28;20061;-72
2023/03/14 08:44:55;;;;;;;6.30;1.58;;;;;;;11.77;66.08;98580.66;4162503;28;20121;-72
2023/03/14 08:47:00;;;;;;;2.85;0.90;;;;;;;11.82;65.96;98584.00;4159374;28;20041;-72
2023/03/14 08:49:02;;;;;;;3.22;0.80;;;;;;;11.86;65.40;98585.66;4144223;28;20404;-72
2023/03/14 08:51:07;;;;;;;1.88;0.70;;;;;;;11.99;65.70;98585.44;4162219;28;20041;-72
2023/03/14 08:53:09;;;;;;;5.43;0.98;;;;;;;12.02;65.63;98593.19;4143186;28;20038;-72
2023/03/14 08:55:12;;;;;;;2.50;0.70;;;;;;;12.13;65.47;98590.31;4159963;28;20037;-72
2023/03/14 08:57:15;;;;;;;3.17;0.88;;;;;;;12.21;65.51;98589.25;4161668;28;20041;-72
2023/03/14 08:59:18;;;;;;;2.90;0.70;;;;;;;12.20;65.23;98603.16;4162328;28;20053;-73
2023/03/14 09:01:23;;;;;;;8.10;1.02;;;;;;;12.13;65.08;98606.81;4141636;28;20049;-72
2023/03/14 09:03:28;;;;;;;5.57;1.45;;;;;;;12.11;64.99;98606.00;4156927;28;20045;-72
2023/03/14 09:05:33;;;;;;;7.53;1.60;;;;;;;12.04;64.91;98612.22;4164716;28;20038;-72
2023/03/14 09:07:36;;;;;;;7.38;0.88;;;;;;;12.02;65.09;98612.25;4160194;28;20042;-72
2023/03/14 09:09:39;;;;;;;3.40;0.90;;;;;;;12.17;66.02;98603.25;4163032;28;20037;-72
2023/03/14 09:11:42;;;;;;;3.92;0.80;;;;;;;12.15;65.72;98610.25;4166193;28;20029;-71
2023/03/14 09:13:45;;;;;;;1.55;0.50;;;;;;;12.26;65.47;98620.41;4171014;28;20047;-71
2023/03/14 09:15:52;;;;;;;2.63;0.82;;;;;;;12.20;65.07;98610.13;4162053;28;20052;-72
2023/03/14 09:17:54;;;;;;;1.70;0.65;;;;;;;12.04;64.61;98617.44;4160146;28;20037;-72
2023/03/14 09:19:59;;;;;;;1.58;0.60;;;;;;;12.19;64.94;98603.22;4159980;28;20114;-72
2023/03/14 09:22:02;;;;;;;0.68;0.40;;;;;;;12.35;64.64;98607.19;4151306;28;20045;-73
2023/03/14 09:24:05;;;;;;;2.58;0.50;;;;;;;12.35;64.57;98602.00;4177354;28;20041;-72
2023/03/14 09:26:08;;;;;;;0.30;0.25;;;;;;;12.45;64.83;98602.59;4159168;28;20527;-72
2023/03/14 09:28:11;;;;;;;0.52;0.38;;;;;;;12.42;64.90;98610.50;4160716;28;20523;-72
2023/03/14 09:30:14;;;;;;;3.17;0.57;;;;;;;12.46;64.69;98606.09;4158223;28;20088;-72
2023/03/14 09:32:17;;;;;;;0.63;0.45;;;;;;;12.33;64.90;98606.34;4160903;28;20049;-72
2023/03/14 09:34:23;;;;;;;2.85;0.95;;;;;;;12.18;65.61;98611.94;4160675;28;20037;-72
2023/03/14 09:36:28;;;;;;;0.73;0.50;;;;;;;11.95;65.65;98623.69;4159985;28;20124;-73
2023/03/14 09:38:32;;;;;;;1.67;0.60;;;;;;;11.84;66.44;98618.69;4161025;28;20087;-73
2023/03/14 09:40:37;;;;;;;2.20;0.60;;;;;;;11.91;66.40;98621.16;4161425;28;20052;-72
2023/03/14 09:42:40;;;;;;;0.80;0.32;;;;;;;11.85;66.18;98612.56;4158221;28;20076;-72
2023/03/14 09:44:53;;;;;;;1.33;0.70;;;;;;;11.92;67.32;98612.47;4183613;28;20040;-72
2023/03/14 09:47:01;;;;;;;3.85;0.85;;;;;;;11.93;66.84;98603.75;4159209;28;20037;-72
2023/03/14 09:49:14;;;;;;;1.48;0.60;;;;;;;11.96;67.00;98607.19;4164782;28;20041;-73
2023/03/14 09:51:21;;;;;;;2.00;0.60;;;;;;;11.88;66.71;98620.34;4159142;28;20099;-73
2023/03/14 09:53:28;;;;;;;1.00;0.50;;;;;;;11.82;67.13;98615.25;4165684;28;20042;-73
2023/03/14 09:55:33;;;;;;;1.67;0.60;;;;;;;11.71;67.40;98609.41;4161530;28;20477;-73
2023/03/14 09:57:39;;;;;;;1.42;0.50;;;;;;;11.88;68.31;98616.88;4163618;28;20043;-73